Time;durP1;ratioP1;P1;durP2;ratioP2;P2;SDS_P1;SDS_P2;PMS_P1;PMS_P2;Temp;Humidity;BMP_temperature;BMP_pressure;BME280_temperature;BME280_humidity;BME280_pressure;Samples;Min_cycle;Max_cycle;Signal;HPM_P1;HPM_P2
2024/02/15 00:02:08;;;;;;;16.70;2.60;;;11.60;99.90;;;;;;5074954;28;20403;-79
2024/02/15 00:04:34;;;;;;;14.60;2.27;;;11.60;99.90;;;;;;5075669;28;20745;-79
2024/02/15 00:07:00;;;;;;;22.00;2.70;;;11.60;99.90;;;;;;5075509;28;20218;-79
2024/02/15 00:09:26;;;;;;;15.30;1.97;;;11.60;99.90;;;;;;5076484;28;20452;-80
2024/02/15 00:11:53;;;;;;;14.95;1.90;;;11.70;99.90;;;;;;5057679;28;20451;-79
2024/02/15 00:14:19;;;;;;;16.92;2.05;;;11.70;99.90;;;;;;5075412;28;20534;-80
2024/02/15 00:16:45;;;;;;;14.23;2.40;;;11.70;99.90;;;;;;5075688;28;20172;-79
2024/02/15 00:19:11;;;;;;;15.43;3.22;;;11.60;99.90;;;;;;5057325;28;20189;-79
2024/02/15 00:21:37;;;;;;;17.87;2.53;;;11.60;99.90;;;;;;5075732;28;20168;-79
2024/02/15 00:24:03;;;;;;;17.70;2.77;;;11.60;99.90;;;;;;5057113;28;20283;-79
2024/02/15 00:26:28;;;;;;;15.30;2.17;;;11.60;99.90;;;;;;5075347;28;20161;-81
2024/02/15 00:28:54;;;;;;;15.23;2.67;;;11.70;99.90;;;;;;5075582;28;20962;-79
2024/02/15 00:31:19;;;;;;;15.70;2.70;;;11.70;99.90;;;;;;5057255;28;20533;-79
2024/02/15 00:33:45;;;;;;;14.47;1.90;;;11.70;99.90;;;;;;5075632;28;20172;-79
2024/02/15 00:36:11;;;;;;;14.57;2.37;;;11.70;99.90;;;;;;5075348;28;20629;-80
2024/02/15 00:38:37;;;;;;;15.50;2.47;;;11.70;99.90;;;;;;5057093;28;20211;-80
2024/02/15 00:41:02;;;;;;;16.07;2.10;;;11.70;99.90;;;;;;5075005;28;20218;-79
2024/02/15 00:43:28;;;;;;;16.07;2.80;;;11.60;99.90;;;;;;5056769;28;20562;-80
2024/02/15 00:45:54;;;;;;;15.05;2.80;;;11.60;99.90;;;;;;5075154;28;20169;-80
2024/02/15 00:48:20;;;;;;;15.37;2.80;;;11.60;99.90;;;;;;5074831;28;20176;-80
2024/02/15 00:50:45;;;;;;;18.73;2.60;;;11.60;99.90;;;;;;5074883;28;20395;-80
2024/02/15 00:53:11;;;;;;;14.80;2.40;;;11.60;99.90;;;;;;5074776;28;20598;-80
2024/02/15 00:55:37;;;;;;;14.13;2.10;;;11.60;99.90;;;;;;5075299;28;20168;-80
2024/02/15 00:58:03;;;;;;;14.60;2.07;;;11.60;99.90;;;;;;5074533;28;20185;-80
2024/02/15 01:00:29;;;;;;;14.97;2.00;;;11.50;99.90;;;;;;5075116;28;20184;-80
2024/02/15 01:02:55;;;;;;;16.67;3.07;;;11.50;99.90;;;;;;5074813;28;20196;-80
2024/02/15 01:05:21;;;;;;;15.60;2.75;;;11.50;99.90;;;;;;5074706;28;20399;-80
2024/02/15 01:07:48;;;;;;;13.88;2.20;;;11.50;99.90;;;;;;5074532;28;20601;-80
2024/02/15 01:10:15;;;;;;;18.60;2.80;;;11.50;99.90;;;;;;5074600;28;20165;-80
2024/02/15 01:12:41;;;;;;;15.35;2.30;;;11.50;99.90;;;;;;5074413;28;20169;-80
2024/02/15 01:15:07;;;;;;;17.70;3.00;;;11.50;99.90;;;;;;5074072;28;20175;-80
2024/02/15 01:17:32;;;;;;;16.10;2.60;;;11.50;99.90;;;;;;5074260;28;20189;-80
2024/02/15 01:19:59;;;;;;;15.20;2.90;;;11.40;99.90;;;;;;5074722;28;20172;-80
2024/02/15 01:22:26;;;;;;;14.52;2.20;;;11.40;99.90;;;;;;5074500;28;20214;-80
2024/02/15 01:24:53;;;;;;;15.13;2.42;;;11.40;99.90;;;;;;5056739;28;20180;-80
2024/02/15 01:27:18;;;;;;;16.25;2.63;;;11.40;99.90;;;;;;5074172;28;20180;-80
2024/02/15 01:29:44;;;;;;;15.70;2.10;;;11.40;99.90;;;;;;5074143;28;20222;-80
2024/02/15 01:32:10;;;;;;;17.30;2.67;;;11.50;99.90;;;;;;5056606;28;20538;-82
2024/02/15 01:34:35;;;;;;;13.83;2.33;;;11.50;99.90;;;;;;5074450;28;20172;-80
2024/02/15 01:37:01;;;;;;;17.50;2.57;;;11.40;99.90;;;;;;5074254;28;20255;-80
2024/02/15 01:39:27;;;;;;;16.27;2.93;;;11.40;99.90;;;;;;5056058;28;20267;-79
2024/02/15 01:41:55;;;;;;;16.03;2.97;;;11.40;99.90;;;;;;5074155;28;20626;-80
2024/02/15 01:44:24;;;;;;;16.98;3.08;;;11.40;99.90;;;;;;5056115;28;20209;-79
2024/02/15 01:46:53;;;;;;;18.55;2.53;;;11.40;99.90;;;;;;5073891;28;20152;-79
2024/02/15 01:49:21;;;;;;;15.13;3.05;;;11.40;99.90;;;;;;5039550;28;20176;-79
2024/02/15 01:51:49;;;;;;;15.82;2.92;;;11.40;99.90;;;;;;5073596;28;20152;-80
2024/02/15 01:54:17;;;;;;;16.35;3.03;;;11.40;99.90;;;;;;5074776;28;20164;-79
2024/02/15 01:56:44;;;;;;;14.57;2.30;;;11.40;99.90;;;;;;5073971;28;20621;-80
2024/02/15 01:59:12;;;;;;;14.70;3.13;;;11.40;99.90;;;;;;5055617;28;20282;-80
2024/02/15 02:01:38;;;;;;;15.30;2.20;;;11.40;99.90;;;;;;5074539;28;20239;-80
2024/02/15 02:04:04;;;;;;;14.63;2.10;;;11.40;99.90;;;;;;5074995;28;20188;-80
2024/02/15 02:06:31;;;;;;;16.63;2.00;;;11.40;99.90;;;;;;5057003;28;20172;-80
2024/02/15 02:08:57;;;;;;;16.52;2.50;;;11.50;99.90;;;;;;5074638;28;20623;-80
2024/02/15 02:11:24;;;;;;;15.50;2.88;;;11.50;99.90;;;;;;5057238;28;20260;-80
2024/02/15 02:13:51;;;;;;;16.50;2.28;;;11.50;99.90;;;;;;5073849;28;20587;-80
2024/02/15 02:16:32;;;;;;;16.42;1.92;;;11.40;99.90;;;;;;5074164;28;20183;-80
2024/02/15 02:18:59;;;;;;;15.27;2.47;;;11.40;99.90;;;;;;5074214;28;20271;-80
2024/02/15 02:21:28;;;;;;;13.70;1.90;;;11.40;99.90;;;;;;5074632;28;20628;-80
2024/02/15 02:23:58;;;;;;;13.70;1.90;;;11.40;99.90;;;;;;5074083;28;20290;-80
2024/02/15 02:26:25;;;;;;;16.20;2.10;;;11.40;99.90;;;;;;5078142;28;20183;-80
2024/02/15 02:28:54;;;;;;;15.63;2.85;;;11.40;99.90;;;;;;5078011;28;20214;-80
2024/02/15 02:31:23;;;;;;;15.63;2.85;;;11.40;99.90;;;;;;5060175;28;20209;-80
2024/02/15 02:33:52;;;;;;;14.95;2.75;;;11.40;99.90;;;;;;5078027;28;20195;-80
2024/02/15 02:36:18;;;;;;;18.70;3.10;;;11.40;99.90;;;;;;5077958;28;20220;-80
2024/02/15 02:38:45;;;;;;;18.60;3.47;;;11.40;99.90;;;;;;5078077;28;20206;-80
2024/02/15 02:41:12;;;;;;;15.52;3.08;;;11.40;99.90;;;;;;5078194;28;20164;-80
2024/02/15 02:43:42;;;;;;;14.80;2.85;;;11.40;99.90;;;;;;5078039;28;20185;-80
2024/02/15 02:46:11;;;;;;;16.35;3.05;;;11.30;99.90;;;;;;5078205;28;20168;-80
2024/02/15 02:48:38;;;;;;;17.85;2.40;;;11.30;99.90;;;;;;5078455;28;20184;-80
2024/02/15 02:51:04;;;;;;;14.48;2.20;;;11.30;99.90;;;;;;5059740;28;20707;-80
2024/02/15 02:53:32;;;;;;;13.38;2.00;;;11.40;99.90;;;;;;5078254;28;20179;-81
2024/02/15 02:55:58;;;;;;;14.43;2.40;;;11.30;99.90;;;;;;5078832;28;20179;-81
2024/02/15 02:58:24;;;;;;;17.20;2.80;;;11.30;99.90;;;;;;5077822;28;20184;-80
2024/02/15 03:00:50;;;;;;;14.17;2.37;;;11.30;99.90;;;;;;5077767;28;20168;-80
2024/02/15 03:03:16;;;;;;;16.42;2.63;;;11.30;99.90;;;;;;5077941;28;20257;-80
2024/02/15 03:05:42;;;;;;;16.52;2.20;;;11.30;99.90;;;;;;5077701;28;20165;-80
2024/02/15 03:08:15;;;;;;;16.83;2.20;;;11.30;99.90;;;;;;5060274;28;20531;-80
2024/02/15 03:10:40;;;;;;;15.65;2.67;;;11.30;99.90;;;;;;5059853;28;20460;-80
2024/02/15 03:13:09;;;;;;;15.70;2.53;;;11.30;99.90;;;;;;5077244;28;20165;-80
2024/02/15 03:15:35;;;;;;;14.43;2.40;;;11.30;99.90;;;;;;5077907;28;20176;-80
2024/02/15 03:18:06;;;;;;;14.63;2.25;;;11.30;99.90;;;;;;5077475;28;20237;-80
2024/02/15 03:20:33;;;;;;;13.65;1.80;;;11.30;99.90;;;;;;5059517;28;20153;-80
2024/02/15 03:23:00;;;;;;;13.57;1.90;;;11.30;99.90;;;;;;5077375;28;20549;-80
2024/02/15 03:25:28;;;;;;;14.77;1.65;;;11.30;99.90;;;;;;5059180;28;20562;-80
2024/02/15 03:27:56;;;;;;;15.35;1.95;;;11.20;99.90;;;;;;5059487;28;20301;-80
2024/02/15 03:30:23;;;;;;;13.30;2.10;;;11.20;99.90;;;;;;5077448;28;20178;-80
2024/02/15 03:32:52;;;;;;;14.63;2.50;;;11.20;99.90;;;;;;5077430;28;20592;-80
2024/02/15 03:35:19;;;;;;;15.18;2.22;;;11.20;99.90;;;;;;5060828;28;20180;-80
2024/02/15 03:37:45;;;;;;;15.30;2.20;;;11.20;99.90;;;;;;5078184;28;20188;-81
2024/02/15 03:40:11;;;;;;;13.90;2.07;;;11.20;99.90;;;;;;5078517;28;20160;-81
2024/02/15 03:42:37;;;;;;;14.35;1.90;;;11.10;99.90;;;;;;5079228;28;20188;-81
2024/02/15 03:45:06;;;;;;;14.27;2.30;;;11.10;99.90;;;;;;5078272;28;20165;-81
2024/02/15 03:47:35;;;;;;;15.18;2.63;;;11.20;99.90;;;;;;5078932;28;20206;-81
2024/02/15 03:50:02;;;;;;;13.32;2.05;;;11.10;99.90;;;;;;5078787;28;20165;-81
2024/02/15 03:52:29;;;;;;;13.90;2.00;;;11.10;99.90;;;;;;5061011;28;20176;-81
2024/02/15 03:54:57;;;;;;;15.82;1.90;;;11.10;99.90;;;;;;5078284;28;20169;-80
2024/02/15 03:57:33;;;;;;;15.23;1.85;;;11.10;99.90;;;;;;5080288;28;20193;-82
2024/02/15 04:00:00;;;;;;;14.65;2.30;;;11.10;99.90;;;;;;5060795;28;20259;-81
2024/02/15 04:02:30;;;;;;;17.95;2.65;;;11.20;99.90;;;;;;5059685;28;20192;-80
2024/02/15 04:04:56;;;;;;;14.55;2.00;;;11.10;99.90;;;;;;5078817;28;20566;-80
2024/02/15 04:07:26;;;;;;;14.60;2.05;;;11.10;99.90;;;;;;5079206;28;20176;-81
2024/02/15 04:09:52;;;;;;;13.98;2.35;;;11.10;99.90;;;;;;5079257;28;20167;-81
2024/02/15 04:12:18;;;;;;;13.10;1.60;;;11.10;99.90;;;;;;5079739;28;20164;-81
2024/02/15 04:14:47;;;;;;;14.00;1.90;;;11.10;99.90;;;;;;5080244;28;20244;-82
2024/02/15 04:17:15;;;;;;;13.40;1.90;;;11.00;99.90;;;;;;5061732;28;20506;-80
2024/02/15 04:19:41;;;;;;;15.43;1.95;;;11.10;99.90;;;;;;5077983;28;20165;-80
2024/02/15 04:22:10;;;;;;;15.57;2.03;;;11.10;99.90;;;;;;5057984;28;20263;-80
2024/02/15 04:24:39;;;;;;;14.30;1.90;;;11.10;99.90;;;;;;5076450;28;20560;-81
2024/02/15 04:27:08;;;;;;;13.85;1.70;;;11.10;99.90;;;;;;5058481;28;20165;-80
2024/02/15 04:29:34;;;;;;;17.10;2.00;;;11.10;99.90;;;;;;5075622;28;20192;-80
2024/02/15 04:32:00;;;;;;;13.98;1.85;;;11.10;99.90;;;;;;5057911;28;20218;-80
2024/02/15 04:34:26;;;;;;;14.10;2.20;;;11.10;99.90;;;;;;5075943;28;20176;-81
2024/02/15 04:36:56;;;;;;;15.93;1.83;;;11.20;99.90;;;;;;5075830;28;20407;-80
2024/02/15 04:39:26;;;;;;;14.35;2.15;;;11.10;99.90;;;;;;5057682;28;20192;-80
2024/02/15 04:41:52;;;;;;;15.93;1.98;;;11.20;99.90;;;;;;5075649;28;20507;-80
2024/02/15 04:44:20;;;;;;;13.85;1.65;;;11.10;99.90;;;;;;5059788;28;20204;-81
2024/02/15 04:46:51;;;;;;;16.13;2.47;;;11.20;99.90;;;;;;5079057;28;20159;-81
2024/02/15 04:49:18;;;;;;;19.75;2.60;;;11.20;99.90;;;;;;5059942;28;20165;-82
2024/02/15 04:51:44;;;;;;;14.43;1.75;;;11.20;99.90;;;;;;5061450;28;20173;-81
2024/02/15 04:54:14;;;;;;;14.75;2.03;;;11.10;99.90;;;;;;5079403;28;20175;-81
2024/02/15 04:56:42;;;;;;;16.50;2.58;;;11.10;99.90;;;;;;5079385;28;20579;-81
2024/02/15 04:59:11;;;;;;;15.98;2.20;;;11.10;99.90;;;;;;5076292;28;20184;-81
2024/02/15 05:01:37;;;;;;;17.33;2.10;;;11.10;99.90;;;;;;5078866;28;20302;-81
2024/02/15 05:04:07;;;;;;;18.13;2.20;;;11.10;99.90;;;;;;5062160;28;20224;-82
2024/02/15 05:06:33;;;;;;;13.40;1.70;;;11.10;99.90;;;;;;5061668;28;20407;-82
2024/02/15 05:09:07;;;;;;;15.90;2.20;;;11.10;99.90;;;;;;5061468;28;20181;-81
2024/02/15 05:11:35;;;;;;;13.45;1.80;;;11.10;99.90;;;;;;5060129;28;20599;-82
2024/02/15 05:14:01;;;;;;;18.17;2.75;;;11.10;99.90;;;;;;5060089;28;20177;-82
2024/02/15 05:16:27;;;;;;;18.17;2.58;;;11.10;99.90;;;;;;5076729;28;20214;-80
2024/02/15 05:18:53;;;;;;;16.27;2.10;;;11.10;99.90;;;;;;5074763;28;20192;-79
2024/02/15 05:21:19;;;;;;;15.55;2.35;;;11.10;99.90;;;;;;5056636;28;20165;-80
2024/02/15 05:23:45;;;;;;;17.27;2.40;;;11.10;99.90;;;;;;5074600;28;20188;-80
2024/02/15 05:26:12;;;;;;;13.35;1.80;;;11.10;99.90;;;;;;5075089;28;20165;-80
2024/02/15 05:28:38;;;;;;;15.02;2.45;;;11.10;99.90;;;;;;5074751;28;20554;-81
2024/02/15 05:31:17;;;;;;;14.90;2.30;;;11.00;99.90;;;;;;5074858;28;20231;-80
2024/02/15 05:33:43;;;;;;;17.35;2.67;;;11.10;99.90;;;;;;5075270;28;20895;-80
2024/02/15 05:36:13;;;;;;;15.35;2.40;;;11.10;99.90;;;;;;5074944;28;20507;-80
2024/02/15 05:38:40;;;;;;;15.20;2.58;;;11.10;99.90;;;;;;5074940;28;20204;-80
2024/02/15 05:41:07;;;;;;;16.55;1.80;;;11.10;99.90;;;;;;5075229;28;20172;-79
2024/02/15 05:43:36;;;;;;;16.80;2.47;;;11.10;99.90;;;;;;5075058;28;20214;-80
2024/02/15 05:46:02;;;;;;;18.08;2.47;;;11.10;99.90;;;;;;5056393;28;20160;-80
2024/02/15 05:48:28;;;;;;;14.80;2.30;;;11.10;99.90;;;;;;5075074;28;20188;-80
2024/02/15 05:50:57;;;;;;;15.13;2.57;;;11.10;99.90;;;;;;5076170;28;20164;-82
2024/02/15 05:53:23;;;;;;;17.30;2.72;;;11.10;99.90;;;;;;5078360;28;20532;-81
2024/02/15 05:55:49;;;;;;;16.02;2.55;;;11.10;99.90;;;;;;5078196;28;20187;-80
2024/02/15 05:58:15;;;;;;;16.63;2.80;;;11.10;99.90;;;;;;5077438;28;20581;-81
2024/02/15 06:00:41;;;;;;;14.57;2.33;;;11.10;99.90;;;;;;5079380;28;20221;-81
2024/02/15 06:03:09;;;;;;;14.63;2.47;;;11.10;99.90;;;;;;5076406;28;20474;-81
2024/02/15 06:05:35;;;;;;;16.10;2.47;;;11.10;99.90;;;;;;5057294;28;20409;-80
2024/02/15 06:08:01;;;;;;;17.23;2.70;;;11.10;99.90;;;;;;5074922;28;20558;-81
2024/02/15 06:10:26;;;;;;;16.90;3.00;;;11.10;99.90;;;;;;5057217;28;20176;-81
2024/02/15 06:12:52;;;;;;;15.00;2.30;;;11.10;99.90;;;;;;5076422;28;20255;-82
2024/02/15 06:15:18;;;;;;;18.30;3.00;;;11.10;99.90;;;;;;5076900;28;20406;-80
2024/02/15 06:17:44;;;;;;;14.23;1.92;;;11.10;99.90;;;;;;5059530;28;20199;-81
2024/02/15 06:20:13;;;;;;;17.42;2.40;;;11.00;99.90;;;;;;5077727;28;20187;-81
2024/02/15 06:22:39;;;;;;;14.50;2.53;;;11.10;99.90;;;;;;5060593;28;20271;-82
2024/02/15 06:25:05;;;;;;;17.03;2.90;;;11.10;99.90;;;;;;5060598;28;20160;-82
2024/02/15 06:27:32;;;;;;;19.95;2.75;;;11.10;99.90;;;;;;5059682;28;20526;-82
2024/02/15 06:41:14;;;;;;;13.57;2.05;;;11.10;99.90;;;;;;5045785;28;20191;-80
2024/02/15 06:43:40;;;;;;;15.77;2.53;;;11.20;99.90;;;;;;5077477;28;20188;-82
2024/02/15 06:46:10;;;;;;;15.40;2.67;;;11.20;99.90;;;;;;5076909;28;20236;-82
2024/02/15 06:48:36;;;;;;;17.30;3.40;;;11.20;99.90;;;;;;5077200;28;20177;-82
2024/02/15 06:51:03;;;;;;;16.83;2.10;;;11.20;99.90;;;;;;5059420;28;20169;-81
2024/02/15 06:53:30;;;;;;;26.58;2.92;;;11.20;99.90;;;;;;5077286;28;20161;-81
2024/02/15 06:55:56;;;;;;;16.42;2.58;;;11.20;99.90;;;;;;5075428;28;20160;-81
2024/02/15 06:58:22;;;;;;;14.75;2.47;;;11.20;99.90;;;;;;5076490;28;20180;-82
2024/02/15 07:00:48;;;;;;;16.97;2.87;;;11.20;99.90;;;;;;5076883;28;20656;-82
2024/02/15 07:03:16;;;;;;;13.52;2.05;;;11.20;99.90;;;;;;5075658;28;20454;-81
2024/02/15 07:05:42;;;;;;;14.73;2.30;;;11.20;99.90;;;;;;5076431;28;20180;-81
2024/02/15 07:08:12;;;;;;;17.33;2.72;;;11.30;99.90;;;;;;5059055;28;20204;-81
2024/02/15 07:10:38;;;;;;;19.33;2.97;;;11.30;99.90;;;;;;5076117;28;20189;-81
2024/02/15 07:13:08;;;;;;;16.58;2.83;;;11.30;99.90;;;;;;5077370;28;20165;-81
2024/02/15 07:15:37;;;;;;;19.38;3.50;;;11.30;99.90;;;;;;5080738;28;20542;-81
2024/02/15 07:18:07;;;;;;;22.90;3.45;;;11.30;99.90;;;;;;5079848;28;20641;-81
2024/02/15 07:20:34;;;;;;;16.30;3.40;;;11.30;99.90;;;;;;5061822;28;20230;-81
2024/02/15 07:22:59;;;;;;;18.73;3.30;;;11.30;99.90;;;;;;5080240;28;20194;-81
2024/02/15 07:25:25;;;;;;;15.47;2.83;;;11.40;99.90;;;;;;5061945;28;20168;-81
2024/02/15 07:27:52;;;;;;;21.07;3.23;;;11.40;99.90;;;;;;5080412;28;20833;-81
2024/02/15 07:30:18;;;;;;;19.30;3.17;;;11.50;99.90;;;;;;5079855;28;20222;-81
2024/02/15 07:32:44;;;;;;;15.20;2.47;;;11.50;99.90;;;;;;5080657;28;20168;-81
2024/02/15 07:35:10;;;;;;;16.00;2.33;;;11.50;99.90;;;;;;5079963;28;20403;-81
2024/02/15 07:37:36;;;;;;;17.85;2.25;;;11.50;99.90;;;;;;5079902;28;20188;-82
2024/02/15 07:40:03;;;;;;;16.50;2.63;;;11.50;99.90;;;;;;5079989;28;20153;-81
2024/02/15 07:42:29;;;;;;;17.65;2.58;;;11.50;99.90;;;;;;5080722;28;20163;-82
2024/02/15 07:44:55;;;;;;;16.70;3.10;;;11.50;99.90;;;;;;5064784;28;20626;-82
2024/02/15 07:47:24;;;;;;;18.93;2.80;;;11.50;99.90;;;;;;5079994;28;20646;-81
2024/02/15 07:49:50;;;;;;;15.85;2.85;;;11.50;99.90;;;;;;5080845;28;20157;-81
2024/02/15 07:52:16;;;;;;;15.18;2.58;;;11.60;99.90;;;;;;5065306;28;20168;-82
2024/02/15 07:54:42;;;;;;;15.93;2.30;;;11.60;99.90;;;;;;5061299;28;20171;-82
2024/02/15 07:57:09;;;;;;;18.07;2.57;;;11.60;99.90;;;;;;5064298;28;20188;-82
2024/02/15 07:59:35;;;;;;;14.90;2.35;;;11.60;99.90;;;;;;5079151;28;20161;-83
2024/02/15 08:02:01;;;;;;;15.32;2.00;;;11.60;99.90;;;;;;5086258;28;20168;-83
2024/02/15 08:04:28;;;;;;;15.38;2.13;;;11.60;99.90;;;;;;5085707;28;20184;-83
2024/02/15 08:06:57;;;;;;;14.55;1.70;;;11.70;99.90;;;;;;5083038;28;20161;-83
2024/02/15 08:09:24;;;;;;;16.38;2.63;;;11.70;99.90;;;;;;5061937;28;20169;-82
2024/02/15 08:11:55;;;;;;;14.57;2.17;;;11.70;99.90;;;;;;5079411;28;20173;-82
2024/02/15 08:14:21;;;;;;;17.60;2.03;;;11.70;99.90;;;;;;5079612;28;20600;-82
2024/02/15 08:16:47;;;;;;;15.27;1.93;;;11.70;99.90;;;;;;5078165;28;20172;-82
2024/02/15 08:19:12;;;;;;;14.50;1.67;;;11.70;99.90;;;;;;5076491;28;20275;-81
2024/02/15 08:21:41;;;;;;;14.10;1.93;;;11.70;99.90;;;;;;5076784;28;20160;-82
2024/02/15 08:24:13;;;;;;;17.75;2.80;;;11.70;99.90;;;;;;5077498;28;20195;-82
2024/02/15 08:26:41;;;;;;;16.30;2.50;;;11.70;99.90;;;;;;5078111;28;20214;-82
2024/02/15 08:29:07;;;;;;;16.15;2.40;;;11.80;99.90;;;;;;5078448;28;20184;-82
2024/02/15 08:31:36;;;;;;;13.83;1.90;;;11.80;99.90;;;;;;5078625;28;20213;-81
2024/02/15 08:34:10;;;;;;;16.40;2.25;;;11.80;99.90;;;;;;5059918;28;20173;-81
2024/02/15 08:36:36;;;;;;;15.45;1.90;;;11.80;99.90;;;;;;5076877;28;20653;-81
2024/02/15 08:39:03;;;;;;;14.77;1.83;;;11.80;99.90;;;;;;5076787;28;20200;-81
2024/02/15 08:41:29;;;;;;;15.35;2.50;;;11.80;99.90;;;;;;5076004;28;20161;-81
2024/02/15 08:43:58;;;;;;;15.43;2.40;;;11.80;99.90;;;;;;5075982;28;20658;-82
2024/02/15 08:46:25;;;;;;;15.45;1.90;;;11.80;99.90;;;;;;5076189;28;20165;-81
2024/02/15 08:48:51;;;;;;;14.70;1.77;;;11.80;99.90;;;;;;5076556;28;20272;-82
2024/02/15 08:51:17;;;;;;;18.20;2.37;;;11.80;99.90;;;;;;5076406;28;20190;-81
2024/02/15 08:53:43;;;;;;;15.57;2.15;;;11.80;99.90;;;;;;5076409;28;20406;-80
2024/02/15 08:56:10;;;;;;;17.30;2.25;;;11.80;99.90;;;;;;5058617;28;20263;-80
2024/02/15 08:58:35;;;;;;;14.77;2.50;;;11.90;99.90;;;;;;5075838;28;20185;-80
2024/02/15 09:01:02;;;;;;;17.67;2.90;;;11.90;99.90;;;;;;5077017;28;20171;-81
2024/02/15 09:03:28;;;;;;;17.80;2.80;;;12.00;99.90;;;;;;5079178;28;20549;-82
2024/02/15 09:05:54;;;;;;;17.00;3.63;;;12.00;99.90;;;;;;5060578;28;20169;-82
2024/02/15 09:08:20;;;;;;;21.50;2.90;;;12.10;99.90;;;;;;5079440;28;20427;-81
2024/02/15 09:10:55;;;;;;;15.95;2.90;;;12.20;99.90;;;;;;5061403;28;20180;-81
2024/02/15 09:13:22;;;;;;;18.80;3.15;;;12.20;99.90;;;;;;5079564;28;20180;-81
2024/02/15 09:15:48;;;;;;;20.60;2.72;;;12.30;99.90;;;;;;5079328;28;20156;-81
2024/02/15 09:18:13;;;;;;;16.67;3.00;;;12.40;99.90;;;;;;5079844;28;20189;-82
2024/02/15 09:20:44;;;;;;;16.10;2.70;;;12.50;99.90;;;;;;5079945;28;20173;-83
2024/02/15 09:23:12;;;;;;;16.63;3.83;;;12.50;99.90;;;;;;5079192;28;20180;-81
2024/02/15 09:25:44;;;;;;;16.48;2.95;;;12.50;99.90;;;;;;5080980;28;20168;-83
2024/02/15 09:28:10;;;;;;;16.48;3.15;;;12.60;99.90;;;;;;5081112;28;20195;-82
2024/02/15 09:30:36;;;;;;;15.48;3.00;;;12.60;99.90;;;;;;5080995;28;20216;-83
2024/02/15 09:33:05;;;;;;;17.00;3.00;;;12.70;99.90;;;;;;5062479;28;20191;-82
2024/02/15 09:35:31;;;;;;;20.08;3.22;;;12.70;99.90;;;;;;5076910;28;20699;-82
2024/02/15 09:37:57;;;;;;;14.40;2.17;;;12.70;99.90;;;;;;5078073;28;20589;-82
2024/02/15 09:40:26;;;;;;;19.97;2.90;;;12.80;99.90;;;;;;5077885;28;20166;-82
2024/02/15 09:42:52;;;;;;;18.00;2.60;;;12.80;99.90;;;;;;5078366;28;20333;-82
2024/02/15 09:45:24;;;;;;;17.60;2.75;;;12.80;99.90;;;;;;5079224;28;20167;-82
2024/02/15 09:47:50;;;;;;;17.30;2.25;;;12.90;99.90;;;;;;5076894;28;20614;-82
2024/02/15 09:50:17;;;;;;;22.70;2.80;;;13.00;99.90;;;;;;5076969;28;20199;-83
2024/02/15 09:52:50;;;;;;;16.63;2.35;;;13.00;99.90;;;;;;5058862;28;20414;-82
2024/02/15 09:55:16;;;;;;;18.48;2.92;;;13.00;99.90;;;;;;5079363;28;20163;-83
2024/02/15 09:57:44;;;;;;;15.98;2.40;;;13.10;99.90;;;;;;5078844;28;20188;-83
2024/02/15 10:00:15;;;;;;;18.23;2.03;;;13.10;99.90;;;;;;5078621;28;20167;-82
2024/02/15 10:02:44;;;;;;;17.38;2.88;;;13.20;99.90;;;;;;5060754;28;20188;-82
2024/02/15 10:05:13;;;;;;;15.10;2.40;;;13.30;99.90;;;;;;5061241;28;20171;-82
2024/02/15 10:07:40;;;;;;;17.02;2.25;;;13.40;99.90;;;;;;5079041;28;20724;-82
2024/02/15 10:10:22;;;;;;;15.80;2.25;;;13.30;99.90;;;;;;5076712;28;20641;-83
2024/02/15 10:12:51;;;;;;;17.77;2.35;;;13.50;99.90;;;;;;5079719;28;20255;-84
2024/02/15 10:15:31;;;;;;;15.80;2.08;;;13.50;99.90;;;;;;5062561;28;20230;-83
2024/02/15 10:17:58;;;;;;;14.53;2.37;;;13.50;99.90;;;;;;5079345;28;20184;-83
2024/02/15 10:20:25;;;;;;;14.40;1.80;;;13.50;99.90;;;;;;5080974;28;20421;-83
2024/02/15 10:23:09;;;;;;;13.80;1.63;;;13.50;99.90;;;;;;5080915;28;20188;-83
2024/02/15 10:25:36;;;;;;;18.60;2.30;;;13.50;99.90;;;;;;5080034;28;20751;-82
2024/02/15 10:28:08;;;;;;;15.27;2.13;;;13.50;99.90;;;;;;5080355;28;20673;-83
2024/02/15 10:30:35;;;;;;;17.33;2.60;;;13.50;99.90;;;;;;5077347;28;20394;-83
2024/02/15 10:33:05;;;;;;;21.80;1.97;;;13.60;99.90;;;;;;5080524;28;20411;-83
2024/02/15 10:35:35;;;;;;;18.37;2.83;;;13.70;99.90;;;;;;5078740;28;20411;-83
2024/02/15 10:38:08;;;;;;;18.92;2.80;;;13.70;99.90;;;;;;5078774;28;20458;-82
2024/02/15 10:40:34;;;;;;;21.23;2.88;;;13.80;99.90;;;;;;5061293;28;20179;-82
2024/02/15 10:43:02;;;;;;;19.80;2.50;;;13.80;99.90;;;;;;5058466;28;20200;-82
2024/02/15 10:45:30;;;;;;;16.20;2.20;;;13.90;99.90;;;;;;5080084;28;20479;-83
2024/02/15 10:47:57;;;;;;;18.80;2.63;;;13.90;99.90;;;;;;5082141;28;20471;-82
2024/02/15 10:50:26;;;;;;;14.63;2.00;;;13.90;99.90;;;;;;5082972;28;20399;-82
2024/02/15 10:52:55;;;;;;;22.57;3.03;;;14.00;99.90;;;;;;5080469;28;20401;-83
2024/02/15 10:55:48;;;;;;;17.10;2.47;;;14.00;99.90;;;;;;5079494;28;20402;-82
2024/02/15 10:58:18;;;;;;;20.30;2.83;;;14.10;99.90;;;;;;5063584;28;20427;-83
2024/02/15 11:00:47;;;;;;;14.60;2.10;;;14.20;99.90;;;;;;5082164;28;20387;-82
2024/02/15 11:03:25;;;;;;;17.77;3.03;;;14.30;99.90;;;;;;5079287;28;20450;-83
2024/02/15 11:05:52;;;;;;;19.87;2.30;;;14.30;99.90;;;;;;5063846;28;20407;-82
2024/02/15 11:08:18;;;;;;;16.50;2.40;;;14.40;99.90;;;;;;5082311;28;20483;-83
2024/02/15 11:10:45;;;;;;;15.27;2.17;;;14.50;99.90;;;;;;5082062;28;20395;-83
2024/02/15 11:13:13;;;;;;;15.30;2.10;;;14.50;99.90;;;;;;5079537;28;20424;-82
2024/02/15 11:15:51;;;;;;;16.60;2.10;;;14.50;99.90;;;;;;5079088;28;20405;-83
2024/02/15 11:18:46;;;;;;;16.03;2.27;;;14.60;99.90;;;;;;5081825;28;20460;-82
2024/02/15 11:21:12;;;;;;;15.13;2.40;;;14.70;99.90;;;;;;5081397;28;20913;-83
2024/02/15 11:23:38;;;;;;;26.80;2.87;;;14.70;99.90;;;;;;5082773;28;20439;-83
2024/02/15 11:26:06;;;;;;;18.63;2.77;;;14.70;99.90;;;;;;5081813;28;20405;-82
2024/02/15 11:28:38;;;;;;;21.73;2.30;;;14.80;99.90;;;;;;5064518;28;20238;-83
2024/02/15 11:31:06;;;;;;;20.23;3.30;;;14.90;99.90;;;;;;5079636;28;20399;-82
2024/02/15 11:33:36;;;;;;;17.17;2.53;;;14.90;99.90;;;;;;5081734;28;20406;-82
2024/02/15 11:36:05;;;;;;;15.67;3.03;;;15.00;99.90;;;;;;5078910;28;20417;-83
2024/02/15 11:38:31;;;;;;;19.13;3.20;;;15.10;99.90;;;;;;5079044;28;20456;-83
2024/02/15 11:40:57;;;;;;;15.17;2.20;;;15.20;99.90;;;;;;5081642;28;20489;-82
2024/02/15 11:43:54;;;;;;;18.93;2.80;;;15.20;99.90;;;;;;5081976;28;20214;-83
2024/02/15 11:46:20;;;;;;;15.23;2.47;;;15.20;99.90;;;;;;5062690;28;20406;-82
2024/02/15 11:48:46;;;;;;;17.00;2.93;;;15.30;99.90;;;;;;5081516;28;20425;-82
2024/02/15 11:51:28;;;;;;;15.20;2.33;;;15.40;99.90;;;;;;5079300;28;20433;-83
2024/02/15 11:54:05;;;;;;;16.23;3.60;;;15.50;99.90;;;;;;5083531;28;20399;-83
2024/02/15 11:56:34;;;;;;;18.07;2.53;;;15.50;99.90;;;;;;5063780;28;20406;-83
2024/02/15 11:59:06;;;;;;;19.30;2.80;;;15.60;99.90;;;;;;5080571;28;20418;-83
2024/02/15 12:21:05;;;;;;;16.03;2.07;;;16.10;99.90;;;;;;5082801;28;20402;-83
2024/02/15 12:23:35;;;;;;;16.60;2.33;;;16.10;99.90;;;;;;5082107;28;20446;-83
2024/02/15 12:26:03;;;;;;;16.43;2.43;;;16.10;99.90;;;;;;5064661;28;20427;-83
2024/02/15 12:28:29;;;;;;;15.83;1.67;;;16.10;99.90;;;;;;5065008;28;20427;-83
2024/02/15 12:30:58;;;;;;;15.73;2.07;;;16.20;99.90;;;;;;5080252;28;20399;-83
2024/02/15 12:33:24;;;;;;;16.13;2.20;;;16.20;99.90;;;;;;5082492;28;21042;-83
2024/02/15 12:35:51;;;;;;;16.07;2.13;;;16.20;99.90;;;;;;5081189;28;20498;-83
2024/02/15 12:38:17;;;;;;;16.13;2.50;;;16.20;99.90;;;;;;5082390;28;20533;-83
2024/02/15 12:40:46;;;;;;;14.83;2.00;;;16.20;99.90;;;;;;5082490;28;21036;-84
2024/02/15 12:43:12;;;;;;;17.47;2.30;;;16.20;99.90;;;;;;5082758;28;20442;-84
2024/02/15 12:45:39;;;;;;;16.70;2.43;;;16.20;99.90;;;;;;5083305;28;20425;-83
2024/02/15 12:48:06;;;;;;;16.53;2.83;;;16.20;99.90;;;;;;5083274;28;20184;-83
2024/02/15 12:50:32;;;;;;;15.33;2.20;;;16.30;99.90;;;;;;5064569;28;20417;-83
2024/02/15 12:53:05;;;;;;;21.40;2.90;;;16.20;99.90;;;;;;5064366;28;20946;-83
2024/02/15 12:55:40;;;;;;;22.33;3.03;;;16.20;99.90;;;;;;5083198;28;20384;-83
2024/02/15 12:58:15;;;;;;;16.10;2.77;;;16.20;99.90;;;;;;5065103;28;20437;-83
2024/02/15 13:00:41;;;;;;;18.23;2.80;;;16.20;99.90;;;;;;5083363;28;20733;-83
2024/02/15 13:03:09;;;;;;;14.70;1.90;;;16.20;99.90;;;;;;5083233;28;20449;-83
2024/02/15 13:05:38;;;;;;;23.63;2.30;;;16.20;99.90;;;;;;5080068;28;20732;-83
2024/02/15 13:08:10;;;;;;;16.33;2.10;;;16.20;99.90;;;;;;5083444;28;20429;-83
2024/02/15 13:10:36;;;;;;;18.03;2.40;;;16.20;99.90;;;;;;5083366;28;20379;-83